Time,TemperatureF,DewpointF,PressureIn,WindDirection,WindDirectionDegrees,WindSpeedMPH,WindSpeedGustMPH,Humidity,HourlyPrecipIn,Conditions,Clouds,dailyrainin,SoftwareType,DateUTC
2013-04-23 00:00:00,51.8,40.0,30.16,NNW,338,0.0,0.0,64,0.00,,,0.00,WUHU216HW,2013-04-23 04:00:00,
2013-04-23 00:01:00,51.8,40.0,30.16,NNW,338,0.0,0.0,64,0.00,,,0.00,WUHU216HW,2013-04-23 04:01:00,
2013-04-23 00:06:00,51.8,40.0,30.16,NNW,338,0.0,0.0,64,0.00,,,0.00,WUHU216HW,2013-04-23 04:06:00,
2013-04-23 00:30:00,50.8,40.6,30.16,WNW,293,0.0,0.0,68,0.00,,,0.00,WUHU216HW,2013-04-23 04:30:00,
2013-04-23 00:35:00,50.8,40.6,30.16,WNW,293,0.0,0.0,68,0.00,,,0.00,WUHU216HW,2013-04-23 04:35:00,
2013-04-23 01:00:00,49.7,40.0,30.16,WNW,293,0.0,0.0,69,0.00,,,0.00,WUHU216HW,2013-04-23 05:00:00,
2013-04-23 01:05:00,49.7,40.0,30.16,WNW,293,0.0,0.0,69,0.00,,,0.00,WUHU216HW,2013-04-23 05:05:00,
2013-04-23 01:30:00,49.1,39.4,30.15,WNW,293,0.0,0.0,69,0.00,,,0.00,WUHU216HW,2013-04-23 05:30:00,
2013-04-23 01:35:00,49.1,39.4,30.15,WNW,293,0.0,0.0,69,0.00,,,0.00,WUHU216HW,2013-04-23 05:35:00,
2013-04-23 02:00:00,48.2,39.6,30.15,WNW,293,0.0,0.0,72,0.00,,,0.00,WUHU216HW,2013-04-23 06:00:00,
2013-04-23 02:05:00,48.2,39.6,30.15,WNW,293,0.0,0.0,72,0.00,,,0.00,WUHU216HW,2013-04-23 06:05:00,
2013-04-23 02:30:00,47.3,39.4,30.14,WNW,293,0.0,0.0,74,0.00,,,0.00,WUHU216HW,2013-04-23 06:30:00,
2013-04-23 02:35:00,47.3,39.4,30.14,WNW,293,0.0,0.0,74,0.00,,,0.00,WUHU216HW,2013-04-23 06:35:00,
2013-04-23 03:00:00,47.0,39.4,30.13,WNW,293,0.0,0.0,75,0.00,,,0.00,WUHU216HW,2013-04-23 07:00:00,
2013-04-23 03:05:00,47.0,39.4,30.13,WNW,293,0.0,0.0,75,0.00,,,0.00,WUHU216HW,2013-04-23 07:05:00,
2013-04-23 03:30:00,46.3,39.2,30.13,NW,315,0.0,0.0,76,0.00,,,0.00,WUHU216HW,2013-04-23 07:30:00,
2013-04-23 03:35:00,46.3,39.2,30.13,NW,315,0.0,0.0,76,0.00,,,0.00,WUHU216HW,2013-04-23 07:35:00,
2013-04-23 04:00:00,45.7,39.0,30.13,NW,315,0.0,0.0,77,0.00,,,0.00,WUHU216HW,2013-04-23 08:00:00,
2013-04-23 04:05:00,45.7,39.0,30.13,NW,315,0.0,0.0,77,0.00,,,0.00,WUHU216HW,2013-04-23 08:05:00,
2013-04-23 04:30:00,45.0,38.5,30.13,NW,315,0.0,0.0,78,0.00,,,0.00,WUHU216HW,2013-04-23 08:30:00,
2013-04-23 04:35:00,45.0,38.5,30.13,NW,315,0.0,0.0,78,0.00,,,0.00,WUHU216HW,2013-04-23 08:35:00,
2013-04-23 05:00:00,44.5,38.3,30.13,WNW,293,0.0,0.0,79,0.00,,,0.00,WUHU216HW,2013-04-23 09:00:00,
2013-04-23 05:05:00,44.5,38.3,30.13,WNW,293,0.0,0.0,79,0.00,,,0.00,WUHU216HW,2013-04-23 09:05:00,
2013-04-23 05:30:00,43.9,38.2,30.13,WNW,293,0.0,0.0,80,0.00,,,0.00,WUHU216HW,2013-04-23 09:30:00,
2013-04-23 05:35:00,43.9,38.2,30.13,WNW,293,0.0,0.0,80,0.00,,,0.00,WUHU216HW,2013-04-23 09:35:00,
2013-04-23 06:00:00,43.7,38.3,30.13,WNW,293,0.0,0.0,81,0.00,,,0.00,WUHU216HW,2013-04-23 10:00:00,
2013-04-23 06:05:00,43.7,38.3,30.13,WNW,293,0.0,0.0,81,0.00,,,0.00,WUHU216HW,2013-04-23 10:05:00,
2013-04-23 06:30:00,43.6,38.7,30.13,NW,315,0.0,0.0,83,0.00,,,0.00,WUHU216HW,2013-04-23 10:30:00,
2013-04-23 06:35:00,43.6,38.7,30.13,NW,315,0.0,0.0,83,0.00,,,0.00,WUHU216HW,2013-04-23 10:35:00,
2013-04-23 07:00:00,43.4,38.5,30.14,NW,315,0.0,0.0,83,0.00,,,0.00,WUHU216HW,2013-04-23 11:00:00,
2013-04-23 07:05:00,43.4,38.5,30.14,NW,315,0.0,0.0,83,0.00,,,0.00,WUHU216HW,2013-04-23 11:05:00,
2013-04-23 07:30:00,43.6,39.1,30.15,WNW,293,0.0,0.0,84,0.00,,,0.00,WUHU216HW,2013-04-23 11:30:00,
2013-04-23 07:35:00,43.6,39.1,30.15,WNW,293,0.0,0.0,84,0.00,,,0.00,WUHU216HW,2013-04-23 11:35:00,
2013-04-23 08:00:00,44.8,40.3,30.16,NW,315,0.0,0.0,84,0.00,,,0.00,WUHU216HW,2013-04-23 12:00:00,
2013-04-23 08:05:00,44.8,40.3,30.16,NW,315,0.0,0.0,84,0.00,,,0.00,WUHU216HW,2013-04-23 12:05:00,
2013-04-23 08:30:00,47.5,41.7,30.15,NW,315,0.4,0.4,80,0.00,,,0.00,WUHU216HW,2013-04-23 12:30:00,
2013-04-23 08:35:00,47.5,41.7,30.15,NW,315,0.4,0.4,80,0.00,,,0.00,WUHU216HW,2013-04-23 12:35:00,
2013-04-23 09:00:00,50.4,43.7,30.15,NW,315,0.0,0.0,78,0.00,,,0.00,WUHU216HW,2013-04-23 13:00:00,
2013-04-23 09:05:00,50.4,43.7,30.15,NW,315,0.0,0.0,78,0.00,,,0.00,WUHU216HW,2013-04-23 13:05:00,
2013-04-23 09:30:00,54.0,45.9,30.15,NNW,338,0.4,0.4,74,0.00,,,0.00,WUHU216HW,2013-04-23 13:30:00,
2013-04-23 09:35:00,54.0,45.9,30.15,NNW,338,0.4,0.4,74,0.00,,,0.00,WUHU216HW,2013-04-23 13:35:00,
2013-04-23 10:00:00,57.8,46.9,30.16,NNW,338,0.0,0.0,67,0.00,,,0.00,WUHU216HW,2013-04-23 14:00:00,
2013-04-23 10:05:00,57.8,46.9,30.16,NNW,338,0.0,0.0,67,0.00,,,0.00,WUHU216HW,2013-04-23 14:05:00,
2013-04-23 10:30:00,60.7,48.9,30.16,SW,225,0.2,0.2,65,0.00,,,0.00,WUHU216HW,2013-04-23 14:30:00,
2013-04-23 10:35:00,60.7,48.9,30.16,SW,225,0.2,0.2,65,0.00,,,0.00,WUHU216HW,2013-04-23 14:35:00,
2013-04-23 11:00:00,65.7,49.5,30.16,NNW,338,0.4,0.4,56,0.00,,,0.00,WUHU216HW,2013-04-23 15:00:00,
2013-04-23 11:05:00,65.7,49.5,30.16,NNW,338,0.4,0.4,56,0.00,,,0.00,WUHU216HW,2013-04-23 15:05:00,
2013-04-23 11:30:00,73.1,52.1,30.16,NNW,338,0.4,0.4,48,0.00,,,0.00,WUHU216HW,2013-04-23 15:30:00,
2013-04-23 11:35:00,73.1,52.1,30.16,NNW,338,0.4,0.4,48,0.00,,,0.00,WUHU216HW,2013-04-23 15:35:00,
2013-04-23 12:00:00,73.6,52.0,30.15,NNW,338,0.4,0.4,47,0.00,,,0.00,WUHU216HW,2013-04-23 16:00:00,
2013-04-23 12:05:00,73.6,52.0,30.15,NNW,338,0.4,0.4,47,0.00,,,0.00,WUHU216HW,2013-04-23 16:05:00,
2013-04-23 12:30:00,75.6,52.1,30.14,North,0,0.2,0.2,44,0.00,,,0.00,WUHU216HW,2013-04-23 16:30:00,
2013-04-23 12:35:00,75.6,52.1,30.14,North,0,0.2,0.2,44,0.00,,,0.00,WUHU216HW,2013-04-23 16:35:00,
2013-04-23 13:00:00,75.2,51.8,30.13,ESE,113,0.4,0.4,44,0.00,,,0.00,WUHU216HW,2013-04-23 17:00:00,
2013-04-23 13:05:00,75.2,51.8,30.13,ESE,113,0.4,0.4,44,0.00,,,0.00,WUHU216HW,2013-04-23 17:05:00,
2013-04-23 13:30:00,77.4,51.8,30.11,East,90,0.4,0.4,41,0.00,,,0.00,WUHU216HW,2013-04-23 17:30:00,
2013-04-23 13:35:00,77.4,51.8,30.11,East,90,0.4,0.4,41,0.00,,,0.00,WUHU216HW,2013-04-23 17:35:00,
2013-04-23 14:00:00,78.7,51.7,30.10,NNE,23,2.0,2.0,39,0.00,,,0.00,WUHU216HW,2013-04-23 18:00:00,
2013-04-23 14:05:00,78.7,51.7,30.10,NNE,23,2.0,2.0,39,0.00,,,0.00,WUHU216HW,2013-04-23 18:05:00,
2013-04-23 14:30:00,81.4,53.3,30.09,North,0,0.7,0.7,38,0.00,,,0.00,WUHU216HW,2013-04-23 18:30:00,
2013-04-23 14:35:00,81.4,53.3,30.09,North,0,0.7,0.7,38,0.00,,,0.00,WUHU216HW,2013-04-23 18:35:00,
2013-04-23 15:00:00,83.2,51.7,30.08,North,0,0.4,0.4,34,0.00,,,0.00,WUHU216HW,2013-04-23 19:00:00,
2013-04-23 15:05:00,83.2,51.7,30.08,North,0,0.4,0.4,34,0.00,,,0.00,WUHU216HW,2013-04-23 19:05:00,
2013-04-23 15:30:00,82.4,50.2,30.07,SSW,203,1.8,1.8,33,0.00,,,0.00,WUHU216HW,2013-04-23 19:30:00,
2013-04-23 15:35:00,82.4,50.2,30.07,SSW,203,1.8,1.8,33,0.00,,,0.00,WUHU216HW,2013-04-23 19:35:00,
2013-04-23 16:00:00,82.8,51.4,30.07,NNW,338,0.0,0.0,34,0.00,,,0.00,WUHU216HW,2013-04-23 20:00:00,
2013-04-23 16:05:00,82.8,51.4,30.07,NNW,338,0.0,0.0,34,0.00,,,0.00,WUHU216HW,2013-04-23 20:05:00,
2013-04-23 16:30:00,79.9,49.7,30.05,North,0,0.9,0.9,35,0.00,,,0.00,WUHU216HW,2013-04-23 20:30:00,
2013-04-23 16:35:00,79.9,49.7,30.05,North,0,0.9,0.9,35,0.00,,,0.00,WUHU216HW,2013-04-23 20:35:00,
2013-04-23 17:00:00,79.4,50.0,30.04,South,180,1.1,1.1,36,0.00,,,0.00,WUHU216HW,2013-04-23 21:00:00,
2013-04-23 17:05:00,79.4,50.0,30.04,South,180,1.1,1.1,36,0.00,,,0.00,WUHU216HW,2013-04-23 21:05:00,
2013-04-23 17:30:00,76.0,49.2,30.04,ENE,68,0.4,0.4,39,0.00,,,0.00,WUHU216HW,2013-04-23 21:30:00,
2013-04-23 17:35:00,76.0,49.2,30.04,ENE,68,0.4,0.4,39,0.00,,,0.00,WUHU216HW,2013-04-23 21:35:00,
2013-04-23 18:00:00,74.3,48.5,30.04,NE,45,0.4,0.4,40,0.00,,,0.00,WUHU216HW,2013-04-23 22:00:00,
2013-04-23 18:05:00,74.3,48.5,30.04,NE,45,0.4,0.4,40,0.00,,,0.00,WUHU216HW,2013-04-23 22:05:00,
2013-04-23 18:30:00,73.3,48.2,30.03,South,180,0.4,0.4,41,0.00,,,0.00,WUHU216HW,2013-04-23 22:30:00,
2013-04-23 18:35:00,73.3,48.2,30.03,South,180,0.4,0.4,41,0.00,,,0.00,WUHU216HW,2013-04-23 22:35:00,
2013-04-23 19:00:00,72.5,48.7,30.03,NW,315,0.0,0.0,43,0.00,,,0.00,WUHU216HW,2013-04-23 23:00:00,
2013-04-23 19:05:00,72.5,48.7,30.03,NW,315,0.0,0.0,43,0.00,,,0.00,WUHU216HW,2013-04-23 23:05:00,
2013-04-23 19:30:00,71.1,48.6,30.04,West,270,0.0,0.0,45,0.00,,,0.00,WUHU216HW,2013-04-23 23:30:00,
2013-04-23 19:35:00,71.1,48.6,30.04,West,270,0.0,0.0,45,0.00,,,0.00,WUHU216HW,2013-04-23 23:35:00,
2013-04-23 20:00:00,68.4,47.9,30.04,West,270,0.0,0.0,48,0.00,,,0.00,WUHU216HW,2013-04-24 00:00:00,
2013-04-23 20:05:00,68.4,47.9,30.04,West,270,0.0,0.0,48,0.00,,,0.00,WUHU216HW,2013-04-24 00:05:00,
2013-04-23 20:30:00,65.9,48.2,30.05,West,270,0.0,0.0,53,0.00,,,0.00,WUHU216HW,2013-04-24 00:30:00,
2013-04-23 20:35:00,65.9,48.2,30.05,West,270,0.0,0.0,53,0.00,,,0.00,WUHU216HW,2013-04-24 00:35:00,
2013-04-23 21:00:00,64.1,49.4,30.06,SSE,158,0.0,0.0,59,0.00,,,0.00,WUHU216HW,2013-04-24 01:00:00,
2013-04-23 21:05:00,64.1,49.4,30.06,SSE,158,0.0,0.0,59,0.00,,,0.00,WUHU216HW,2013-04-24 01:05:00,
2013-04-23 21:30:00,63.9,51.0,30.06,SE,135,0.0,0.0,63,0.00,,,0.00,WUHU216HW,2013-04-24 01:30:00,
2013-04-23 21:35:00,63.9,51.0,30.06,SE,135,0.0,0.0,63,0.00,,,0.00,WUHU216HW,2013-04-24 01:35:00,
2013-04-23 22:00:00,63.5,50.7,30.07,SE,135,0.0,0.0,63,0.00,,,0.00,WUHU216HW,2013-04-24 02:00:00,
2013-04-23 22:05:00,63.5,50.7,30.07,SE,135,0.0,0.0,63,0.00,,,0.00,WUHU216HW,2013-04-24 02:05:00,
2013-04-23 22:30:00,62.6,50.7,30.08,SE,135,0.0,0.0,65,0.00,,,0.00,WUHU216HW,2013-04-24 02:30:00,
2013-04-23 22:35:00,62.6,50.7,30.08,SE,135,0.0,0.0,65,0.00,,,0.00,WUHU216HW,2013-04-24 02:35:00,